sensor_id;sensor_type;location;lat;lon;timestamp;P1;durP1;ratioP1;P2;durP2;ratioP2
27039;SDS011;14589;51.578;7.306;2023-06-14T00:01:10;5.60;;;2.05;;
27039;SDS011;14589;51.578;7.306;2023-06-14T00:03:43;5.40;;;2.22;;
27039;SDS011;14589;51.578;7.306;2023-06-14T00:06:14;4.20;;;1.83;;
27039;SDS011;14589;51.578;7.306;2023-06-14T00:08:44;4.40;;;2.28;;
27039;SDS011;14589;51.578;7.306;2023-06-14T00:11:15;5.75;;;1.95;;
27039;SDS011;14589;51.578;7.306;2023-06-14T00:13:45;3.97;;;2.33;;
27039;SDS011;14589;51.578;7.306;2023-06-14T00:16:16;3.95;;;2.70;;
27039;SDS011;14589;51.578;7.306;2023-06-14T00:18:46;4.10;;;2.55;;
27039;SDS011;14589;51.578;7.306;2023-06-14T00:21:17;3.65;;;2.45;;
27039;SDS011;14589;51.578;7.306;2023-06-14T00:23:48;3.92;;;1.77;;
27039;SDS011;14589;51.578;7.306;2023-06-14T00:26:18;4.50;;;2.35;;
27039;SDS011;14589;51.578;7.306;2023-06-14T00:28:48;5.07;;;2.00;;
27039;SDS011;14589;51.578;7.306;2023-06-14T00:31:19;5.40;;;2.53;;
27039;SDS011;14589;51.578;7.306;2023-06-14T00:33:50;2.90;;;1.65;;
27039;SDS011;14589;51.578;7.306;2023-06-14T00:36:21;4.00;;;2.38;;
27039;SDS011;14589;51.578;7.306;2023-06-14T00:38:51;3.97;;;2.25;;
27039;SDS011;14589;51.578;7.306;2023-06-14T00:41:22;3.50;;;1.60;;
27039;SDS011;14589;51.578;7.306;2023-06-14T00:43:52;4.10;;;1.58;;
27039;SDS011;14589;51.578;7.306;2023-06-14T00:46:25;5.35;;;1.58;;
27039;SDS011;14589;51.578;7.306;2023-06-14T00:48:56;2.88;;;1.45;;
27039;SDS011;14589;51.578;7.306;2023-06-14T00:51:28;5.70;;;1.67;;
27039;SDS011;14589;51.578;7.306;2023-06-14T00:53:59;3.70;;;2.03;;
27039;SDS011;14589;51.578;7.306;2023-06-14T00:56:30;3.15;;;1.80;;
27039;SDS011;14589;51.578;7.306;2023-06-14T00:59:01;3.67;;;1.23;;
27039;SDS011;14589;51.578;7.306;2023-06-14T01:01:32;3.90;;;1.90;;
27039;SDS011;14589;51.578;7.306;2023-06-14T01:04:04;3.00;;;1.58;;
27039;SDS011;14589;51.578;7.306;2023-06-14T01:06:43;2.95;;;1.67;;
27039;SDS011;14589;51.578;7.306;2023-06-14T01:09:58;4.18;;;1.65;;
27039;SDS011;14589;51.578;7.306;2023-06-14T01:12:50;6.25;;;1.73;;
27039;SDS011;14589;51.578;7.306;2023-06-14T01:15:29;2.88;;;1.13;;
27039;SDS011;14589;51.578;7.306;2023-06-14T01:18:01;5.15;;;1.77;;
27039;SDS011;14589;51.578;7.306;2023-06-14T01:20:34;5.63;;;2.03;;
27039;SDS011;14589;51.578;7.306;2023-06-14T01:23:08;2.88;;;1.52;;
27039;SDS011;14589;51.578;7.306;2023-06-14T01:25:38;4.32;;;1.33;;
27039;SDS011;14589;51.578;7.306;2023-06-14T01:28:15;2.80;;;1.02;;
27039;SDS011;14589;51.578;7.306;2023-06-14T01:30:47;3.80;;;1.65;;
27039;SDS011;14589;51.578;7.306;2023-06-14T01:33:24;3.05;;;1.48;;
27039;SDS011;14589;51.578;7.306;2023-06-14T01:35:57;5.35;;;1.63;;
27039;SDS011;14589;51.578;7.306;2023-06-14T01:38:28;4.40;;;1.52;;
27039;SDS011;14589;51.578;7.306;2023-06-14T01:41:02;3.83;;;1.20;;
27039;SDS011;14589;51.578;7.306;2023-06-14T01:43:33;4.70;;;2.10;;
27039;SDS011;14589;51.578;7.306;2023-06-14T01:46:04;6.55;;;2.47;;
27039;SDS011;14589;51.578;7.306;2023-06-14T01:48:36;3.15;;;1.33;;
27039;SDS011;14589;51.578;7.306;2023-06-14T01:51:07;3.08;;;1.02;;
27039;SDS011;14589;51.578;7.306;2023-06-14T01:53:38;3.08;;;1.42;;
27039;SDS011;14589;51.578;7.306;2023-06-14T01:56:08;3.78;;;1.10;;
27039;SDS011;14589;51.578;7.306;2023-06-14T01:58:39;3.35;;;1.60;;
27039;SDS011;14589;51.578;7.306;2023-06-14T02:01:10;4.70;;;1.52;;
27039;SDS011;14589;51.578;7.306;2023-06-14T02:03:41;3.40;;;1.48;;
27039;SDS011;14589;51.578;7.306;2023-06-14T02:06:12;5.70;;;1.80;;
27039;SDS011;14589;51.578;7.306;2023-06-14T02:08:43;3.42;;;1.40;;
27039;SDS011;14589;51.578;7.306;2023-06-14T02:11:14;4.55;;;1.92;;
27039;SDS011;14589;51.578;7.306;2023-06-14T02:13:45;4.38;;;1.63;;
27039;SDS011;14589;51.578;7.306;2023-06-14T02:16:15;4.97;;;1.02;;
27039;SDS011;14589;51.578;7.306;2023-06-14T02:18:47;5.13;;;1.98;;
27039;SDS011;14589;51.578;7.306;2023-06-14T02:21:18;3.85;;;1.55;;
27039;SDS011;14589;51.578;7.306;2023-06-14T02:23:50;4.32;;;1.40;;
27039;SDS011;14589;51.578;7.306;2023-06-14T02:26:20;3.60;;;1.42;;
27039;SDS011;14589;51.578;7.306;2023-06-14T02:28:51;3.97;;;1.83;;
27039;SDS011;14589;51.578;7.306;2023-06-14T02:31:21;4.05;;;0.93;;
27039;SDS011;14589;51.578;7.306;2023-06-14T02:33:52;2.47;;;0.63;;
27039;SDS011;14589;51.578;7.306;2023-06-14T02:36:24;4.45;;;1.35;;
27039;SDS011;14589;51.578;7.306;2023-06-14T02:38:55;3.40;;;1.15;;
27039;SDS011;14589;51.578;7.306;2023-06-14T02:41:28;3.28;;;1.30;;
27039;SDS011;14589;51.578;7.306;2023-06-14T02:43:58;3.88;;;1.10;;
27039;SDS011;14589;51.578;7.306;2023-06-14T02:46:32;3.17;;;1.10;;
27039;SDS011;14589;51.578;7.306;2023-06-14T02:49:03;2.47;;;0.80;;
27039;SDS011;14589;51.578;7.306;2023-06-14T02:51:35;4.80;;;1.33;;
27039;SDS011;14589;51.578;7.306;2023-06-14T02:54:05;4.68;;;1.45;;
27039;SDS011;14589;51.578;7.306;2023-06-14T02:56:36;5.53;;;1.08;;
27039;SDS011;14589;51.578;7.306;2023-06-14T02:59:06;2.85;;;1.17;;
27039;SDS011;14589;51.578;7.306;2023-06-14T03:01:37;3.28;;;1.20;;
27039;SDS011;14589;51.578;7.306;2023-06-14T03:04:12;2.38;;;1.17;;
27039;SDS011;14589;51.578;7.306;2023-06-14T03:06:44;3.40;;;1.15;;
27039;SDS011;14589;51.578;7.306;2023-06-14T03:09:21;3.13;;;1.75;;
27039;SDS011;14589;51.578;7.306;2023-06-14T03:11:52;2.80;;;1.17;;
27039;SDS011;14589;51.578;7.306;2023-06-14T03:14:22;2.50;;;0.70;;
27039;SDS011;14589;51.578;7.306;2023-06-14T03:16:53;4.15;;;1.70;;
27039;SDS011;14589;51.578;7.306;2023-06-14T03:19:27;2.50;;;1.08;;
27039;SDS011;14589;51.578;7.306;2023-06-14T03:21:58;5.22;;;1.35;;
27039;SDS011;14589;51.578;7.306;2023-06-14T03:24:31;4.32;;;1.35;;
27039;SDS011;14589;51.578;7.306;2023-06-14T03:27:10;3.88;;;1.52;;
27039;SDS011;14589;51.578;7.306;2023-06-14T03:29:42;2.92;;;0.70;;
27039;SDS011;14589;51.578;7.306;2023-06-14T03:32:13;4.88;;;2.47;;
27039;SDS011;14589;51.578;7.306;2023-06-14T03:34:46;3.10;;;1.17;;
27039;SDS011;14589;51.578;7.306;2023-06-14T03:37:22;3.65;;;1.20;;
27039;SDS011;14589;51.578;7.306;2023-06-14T03:39:53;2.88;;;1.10;;
27039;SDS011;14589;51.578;7.306;2023-06-14T03:42:27;2.88;;;1.33;;
27039;SDS011;14589;51.578;7.306;2023-06-14T03:44:58;4.13;;;1.55;;
27039;SDS011;14589;51.578;7.306;2023-06-14T03:47:29;2.55;;;1.00;;
27039;SDS011;14589;51.578;7.306;2023-06-14T03:50:04;2.92;;;1.13;;
27039;SDS011;14589;51.578;7.306;2023-06-14T03:52:35;2.95;;;1.08;;
27039;SDS011;14589;51.578;7.306;2023-06-14T03:55:07;3.72;;;0.75;;
27039;SDS011;14589;51.578;7.306;2023-06-14T03:57:38;3.10;;;0.80;;
27039;SDS011;14589;51.578;7.306;2023-06-14T04:00:13;2.83;;;1.23;;
27039;SDS011;14589;51.578;7.306;2023-06-14T04:02:45;3.78;;;1.00;;
27039;SDS011;14589;51.578;7.306;2023-06-14T04:05:15;2.97;;;0.95;;
27039;SDS011;14589;51.578;7.306;2023-06-14T04:07:52;4.15;;;1.02;;
27039;SDS011;14589;51.578;7.306;2023-06-14T04:10:25;2.80;;;1.17;;
27039;SDS011;14589;51.578;7.306;2023-06-14T04:12:57;3.55;;;1.23;;
27039;SDS011;14589;51.578;7.306;2023-06-14T04:15:27;1.55;;;0.65;;
27039;SDS011;14589;51.578;7.306;2023-06-14T04:18:02;5.00;;;2.08;;
27039;SDS011;14589;51.578;7.306;2023-06-14T04:20:32;3.40;;;1.85;;
27039;SDS011;14589;51.578;7.306;2023-06-14T04:23:13;5.55;;;1.15;;
27039;SDS011;14589;51.578;7.306;2023-06-14T04:25:45;3.10;;;1.38;;
27039;SDS011;14589;51.578;7.306;2023-06-14T04:28:16;3.47;;;1.23;;
27039;SDS011;14589;51.578;7.306;2023-06-14T04:30:48;2.88;;;1.00;;
27039;SDS011;14589;51.578;7.306;2023-06-14T04:33:21;3.45;;;1.13;;
27039;SDS011;14589;51.578;7.306;2023-06-14T04:35:53;2.35;;;1.08;;
27039;SDS011;14589;51.578;7.306;2023-06-14T04:38:24;3.55;;;0.73;;
27039;SDS011;14589;51.578;7.306;2023-06-14T04:40:57;5.32;;;1.40;;
27039;SDS011;14589;51.578;7.306;2023-06-14T04:43:32;5.60;;;1.52;;
27039;SDS011;14589;51.578;7.306;2023-06-14T04:46:08;6.28;;;1.50;;
27039;SDS011;14589;51.578;7.306;2023-06-14T04:48:40;3.95;;;0.82;;
27039;SDS011;14589;51.578;7.306;2023-06-14T04:51:14;8.70;;;1.65;;
27039;SDS011;14589;51.578;7.306;2023-06-14T04:53:45;6.70;;;1.42;;
27039;SDS011;14589;51.578;7.306;2023-06-14T04:56:16;2.28;;;1.08;;
27039;SDS011;14589;51.578;7.306;2023-06-14T04:58:47;3.72;;;1.75;;
27039;SDS011;14589;51.578;7.306;2023-06-14T05:01:18;3.58;;;1.00;;
27039;SDS011;14589;51.578;7.306;2023-06-14T05:03:49;3.42;;;0.60;;
27039;SDS011;14589;51.578;7.306;2023-06-14T05:06:19;4.72;;;1.10;;
27039;SDS011;14589;51.578;7.306;2023-06-14T05:08:50;3.58;;;1.63;;
27039;SDS011;14589;51.578;7.306;2023-06-14T05:11:24;4.78;;;1.33;;
27039;SDS011;14589;51.578;7.306;2023-06-14T05:13:57;8.57;;;1.30;;
27039;SDS011;14589;51.578;7.306;2023-06-14T05:16:28;6.53;;;1.27;;
27039;SDS011;14589;51.578;7.306;2023-06-14T05:18:59;7.50;;;1.65;;
27039;SDS011;14589;51.578;7.306;2023-06-14T05:24:03;8.95;;;1.83;;
27039;SDS011;14589;51.578;7.306;2023-06-14T05:26:35;4.80;;;1.30;;
27039;SDS011;14589;51.578;7.306;2023-06-14T05:29:05;5.80;;;0.90;;
27039;SDS011;14589;51.578;7.306;2023-06-14T05:31:36;7.00;;;1.30;;
27039;SDS011;14589;51.578;7.306;2023-06-14T05:34:06;3.22;;;1.02;;
27039;SDS011;14589;51.578;7.306;2023-06-14T05:36:37;8.38;;;1.30;;
27039;SDS011;14589;51.578;7.306;2023-06-14T05:39:07;3.75;;;1.65;;
27039;SDS011;14589;51.578;7.306;2023-06-14T05:41:38;2.55;;;0.57;;
27039;SDS011;14589;51.578;7.306;2023-06-14T05:44:08;3.78;;;0.70;;
27039;SDS011;14589;51.578;7.306;2023-06-14T05:46:39;2.00;;;0.90;;
27039;SDS011;14589;51.578;7.306;2023-06-14T05:49:10;2.60;;;1.48;;
27039;SDS011;14589;51.578;7.306;2023-06-14T05:51:41;6.22;;;1.17;;
27039;SDS011;14589;51.578;7.306;2023-06-14T05:54:12;3.60;;;1.02;;
27039;SDS011;14589;51.578;7.306;2023-06-14T05:56:42;3.30;;;0.63;;
27039;SDS011;14589;51.578;7.306;2023-06-14T05:59:13;2.85;;;0.60;;
27039;SDS011;14589;51.578;7.306;2023-06-14T06:01:43;3.47;;;0.70;;
27039;SDS011;14589;51.578;7.306;2023-06-14T06:04:13;5.70;;;1.05;;
27039;SDS011;14589;51.578;7.306;2023-06-14T06:06:44;2.58;;;0.95;;
27039;SDS011;14589;51.578;7.306;2023-06-14T06:09:15;5.88;;;0.90;;
27039;SDS011;14589;51.578;7.306;2023-06-14T06:11:45;3.38;;;1.35;;
27039;SDS011;14589;51.578;7.306;2023-06-14T06:14:16;4.70;;;1.10;;
27039;SDS011;14589;51.578;7.306;2023-06-14T06:16:46;8.20;;;1.38;;
27039;SDS011;14589;51.578;7.306;2023-06-14T06:19:16;5.35;;;0.70;;
27039;SDS011;14589;51.578;7.306;2023-06-14T06:21:47;3.42;;;1.92;;
27039;SDS011;14589;51.578;7.306;2023-06-14T06:24:17;8.05;;;2.10;;
27039;SDS011;14589;51.578;7.306;2023-06-14T06:26:48;4.75;;;1.13;;
27039;SDS011;14589;51.578;7.306;2023-06-14T06:29:18;4.85;;;1.70;;
27039;SDS011;14589;51.578;7.306;2023-06-14T06:31:49;4.78;;;0.88;;
27039;SDS011;14589;51.578;7.306;2023-06-14T06:34:20;4.50;;;1.60;;
27039;SDS011;14589;51.578;7.306;2023-06-14T06:36:50;2.70;;;0.52;;
27039;SDS011;14589;51.578;7.306;2023-06-14T06:39:20;4.53;;;1.15;;
27039;SDS011;14589;51.578;7.306;2023-06-14T06:41:51;2.03;;;0.90;;
27039;SDS011;14589;51.578;7.306;2023-06-14T06:44:31;3.45;;;0.90;;
27039;SDS011;14589;51.578;7.306;2023-06-14T06:47:01;4.45;;;1.35;;
27039;SDS011;14589;51.578;7.306;2023-06-14T06:49:32;2.65;;;0.70;;
27039;SDS011;14589;51.578;7.306;2023-06-14T06:52:03;1.98;;;0.98;;
27039;SDS011;14589;51.578;7.306;2023-06-14T06:54:35;7.18;;;0.93;;
27039;SDS011;14589;51.578;7.306;2023-06-14T06:57:05;3.67;;;1.05;;
27039;SDS011;14589;51.578;7.306;2023-06-14T06:59:36;3.55;;;0.90;;
27039;SDS011;14589;51.578;7.306;2023-06-14T07:02:07;1.58;;;0.82;;
27039;SDS011;14589;51.578;7.306;2023-06-14T07:04:37;2.83;;;1.33;;
27039;SDS011;14589;51.578;7.306;2023-06-14T07:07:08;1.58;;;0.52;;
27039;SDS011;14589;51.578;7.306;2023-06-14T07:09:39;3.33;;;0.65;;
27039;SDS011;14589;51.578;7.306;2023-06-14T07:12:11;4.20;;;1.77;;
27039;SDS011;14589;51.578;7.306;2023-06-14T07:14:42;5.45;;;1.65;;
27039;SDS011;14589;51.578;7.306;2023-06-14T07:17:13;3.65;;;1.08;;
27039;SDS011;14589;51.578;7.306;2023-06-14T07:19:44;4.07;;;0.82;;
27039;SDS011;14589;51.578;7.306;2023-06-14T07:22:16;3.45;;;0.73;;
27039;SDS011;14589;51.578;7.306;2023-06-14T07:24:47;1.95;;;0.55;;
27039;SDS011;14589;51.578;7.306;2023-06-14T07:27:19;5.10;;;0.90;;
27039;SDS011;14589;51.578;7.306;2023-06-14T07:29:49;6.45;;;0.68;;
27039;SDS011;14589;51.578;7.306;2023-06-14T07:32:19;2.53;;;0.80;;
27039;SDS011;14589;51.578;7.306;2023-06-14T07:34:50;7.95;;;0.95;;
27039;SDS011;14589;51.578;7.306;2023-06-14T07:37:20;5.10;;;0.68;;
27039;SDS011;14589;51.578;7.306;2023-06-14T07:39:51;7.35;;;0.77;;
27039;SDS011;14589;51.578;7.306;2023-06-14T07:42:21;2.45;;;0.73;;
27039;SDS011;14589;51.578;7.306;2023-06-14T07:44:51;1.35;;;0.55;;
27039;SDS011;14589;51.578;7.306;2023-06-14T07:47:23;3.10;;;0.77;;
27039;SDS011;14589;51.578;7.306;2023-06-14T07:49:53;2.38;;;0.28;;
27039;SDS011;14589;51.578;7.306;2023-06-14T07:52:23;2.63;;;0.68;;
27039;SDS011;14589;51.578;7.306;2023-06-14T07:54:54;1.70;;;0.57;;
27039;SDS011;14589;51.578;7.306;2023-06-14T07:57:24;2.42;;;0.70;;
27039;SDS011;14589;51.578;7.306;2023-06-14T07:59:54;4.07;;;1.23;;
27039;SDS011;14589;51.578;7.306;2023-06-14T08:02:25;2.85;;;1.40;;
27039;SDS011;14589;51.578;7.306;2023-06-14T08:04:55;2.08;;;0.77;;
27039;SDS011;14589;51.578;7.306;2023-06-14T08:07:26;2.47;;;0.50;;
27039;SDS011;14589;51.578;7.306;2023-06-14T08:09:56;1.55;;;0.45;;
27039;SDS011;14589;51.578;7.306;2023-06-14T08:12:26;3.28;;;0.75;;
27039;SDS011;14589;51.578;7.306;2023-06-14T08:14:57;3.42;;;0.68;;
27039;SDS011;14589;51.578;7.306;2023-06-14T08:17:27;6.13;;;0.60;;
27039;SDS011;14589;51.578;7.306;2023-06-14T08:19:57;1.90;;;0.47;;
27039;SDS011;14589;51.578;7.306;2023-06-14T08:22:28;3.28;;;0.63;;
27039;SDS011;14589;51.578;7.306;2023-06-14T08:25:01;1.33;;;0.30;;
27039;SDS011;14589;51.578;7.306;2023-06-14T08:27:33;1.90;;;0.82;;
27039;SDS011;14589;51.578;7.306;2023-06-14T08:30:03;4.00;;;0.45;;
27039;SDS011;14589;51.578;7.306;2023-06-14T08:32:34;0.98;;;0.30;;
27039;SDS011;14589;51.578;7.306;2023-06-14T08:35:04;1.17;;;0.38;;
27039;SDS011;14589;51.578;7.306;2023-06-14T08:37:39;3.50;;;0.20;;
27039;SDS011;14589;51.578;7.306;2023-06-14T08:40:21;0.88;;;0.38;;
27039;SDS011;14589;51.578;7.306;2023-06-14T08:42:53;1.75;;;0.90;;
27039;SDS011;14589;51.578;7.306;2023-06-14T08:45:24;2.33;;;0.32;;
27039;SDS011;14589;51.578;7.306;2023-06-14T08:47:55;0.90;;;0.22;;
27039;SDS011;14589;51.578;7.306;2023-06-14T08:50:29;0.88;;;0.32;;
27039;SDS011;14589;51.578;7.306;2023-06-14T08:53:02;0.93;;;0.20;;
27039;SDS011;14589;51.578;7.306;2023-06-14T08:55:33;0.57;;;0.22;;
27039;SDS011;14589;51.578;7.306;2023-06-14T08:58:03;1.95;;;0.30;;
27039;SDS011;14589;51.578;7.306;2023-06-14T09:00:35;1.35;;;0.10;;
27039;SDS011;14589;51.578;7.306;2023-06-14T09:03:08;0.80;;;0.20;;
27039;SDS011;14589;51.578;7.306;2023-06-14T09:05:43;3.65;;;0.00;;
27039;SDS011;14589;51.578;7.306;2023-06-14T09:08:17;3.08;;;0.40;;
27039;SDS011;14589;51.578;7.306;2023-06-14T09:13:26;0.45;;;0.03;;
27039;SDS011;14589;51.578;7.306;2023-06-14T09:15:56;2.20;;;0.20;;
27039;SDS011;14589;51.578;7.306;2023-06-14T09:18:43;1.27;;;0.35;;
27039;SDS011;14589;51.578;7.306;2023-06-14T09:21:17;1.95;;;0.10;;
27039;SDS011;14589;51.578;7.306;2023-06-14T09:23:48;2.72;;;0.32;;
27039;SDS011;14589;51.578;7.306;2023-06-14T09:26:19;2.72;;;0.43;;
27039;SDS011;14589;51.578;7.306;2023-06-14T09:31:28;2.10;;;0.30;;
27039;SDS011;14589;51.578;7.306;2023-06-14T09:34:02;1.45;;;0.17;;
27039;SDS011;14589;51.578;7.306;2023-06-14T09:36:32;5.13;;;0.20;;
27039;SDS011;14589;51.578;7.306;2023-06-14T09:39:03;1.20;;;0.10;;
27039;SDS011;14589;51.578;7.306;2023-06-14T09:41:37;7.25;;;0.60;;
27039;SDS011;14589;51.578;7.306;2023-06-14T09:44:10;0.88;;;0.38;;
27039;SDS011;14589;51.578;7.306;2023-06-14T09:46:43;1.80;;;0.20;;
27039;SDS011;14589;51.578;7.306;2023-06-14T09:49:14;0.55;;;0.35;;
27039;SDS011;14589;51.578;7.306;2023-06-14T09:51:45;6.30;;;0.40;;
27039;SDS011;14589;51.578;7.306;2023-06-14T09:54:16;0.68;;;0.22;;
27039;SDS011;14589;51.578;7.306;2023-06-14T09:56:56;0.45;;;0.20;;
27039;SDS011;14589;51.578;7.306;2023-06-14T09:59:26;4.30;;;0.20;;
27039;SDS011;14589;51.578;7.306;2023-06-14T10:02:05;1.98;;;0.43;;
27039;SDS011;14589;51.578;7.306;2023-06-14T10:04:43;4.75;;;0.20;;
27039;SDS011;14589;51.578;7.306;2023-06-14T10:07:19;3.00;;;0.38;;
27039;SDS011;14589;51.578;7.306;2023-06-14T10:09:51;0.40;;;0.28;;
27039;SDS011;14589;51.578;7.306;2023-06-14T10:12:24;3.53;;;0.35;;
27039;SDS011;14589;51.578;7.306;2023-06-14T10:14:55;0.38;;;0.03;;
27039;SDS011;14589;51.578;7.306;2023-06-14T10:17:33;0.68;;;0.10;;
27039;SDS011;14589;51.578;7.306;2023-06-14T10:20:19;2.75;;;0.30;;
27039;SDS011;14589;51.578;7.306;2023-06-14T10:23:00;0.93;;;0.52;;
27039;SDS011;14589;51.578;7.306;2023-06-14T10:25:35;1.10;;;0.35;;
27039;SDS011;14589;51.578;7.306;2023-06-14T10:28:16;1.85;;;0.10;;
27039;SDS011;14589;51.578;7.306;2023-06-14T10:33:35;2.78;;;0.15;;
27039;SDS011;14589;51.578;7.306;2023-06-14T10:41:31;1.80;;;0.50;;
27039;SDS011;14589;51.578;7.306;2023-06-14T10:44:10;2.85;;;0.20;;
27039;SDS011;14589;51.578;7.306;2023-06-14T10:47:00;0.98;;;0.00;;
27039;SDS011;14589;51.578;7.306;2023-06-14T10:49:38;0.93;;;0.43;;
27039;SDS011;14589;51.578;7.306;2023-06-14T10:52:12;3.38;;;0.70;;
27039;SDS011;14589;51.578;7.306;2023-06-14T10:55:06;2.88;;;0.05;;
27039;SDS011;14589;51.578;7.306;2023-06-14T10:57:52;0.77;;;0.38;;
27039;SDS011;14589;51.578;7.306;2023-06-14T11:00:30;2.35;;;0.30;;
27039;SDS011;14589;51.578;7.306;2023-06-14T11:11:23;0.70;;;0.50;;
27039;SDS011;14589;51.578;7.306;2023-06-14T11:14:01;1.38;;;0.40;;
27039;SDS011;14589;51.578;7.306;2023-06-14T11:16:34;0.60;;;0.20;;
27039;SDS011;14589;51.578;7.306;2023-06-14T11:19:05;3.20;;;0.43;;
27039;SDS011;14589;51.578;7.306;2023-06-14T11:21:39;2.20;;;0.35;;
27039;SDS011;14589;51.578;7.306;2023-06-14T11:24:10;1.35;;;0.10;;
27039;SDS011;14589;51.578;7.306;2023-06-14T11:26:42;3.85;;;0.45;;
27039;SDS011;14589;51.578;7.306;2023-06-14T11:29:14;3.63;;;0.43;;
27039;SDS011;14589;51.578;7.306;2023-06-14T11:31:46;2.47;;;1.05;;
27039;SDS011;14589;51.578;7.306;2023-06-14T11:34:17;1.92;;;0.30;;
27039;SDS011;14589;51.578;7.306;2023-06-14T11:36:56;4.68;;;0.90;;
27039;SDS011;14589;51.578;7.306;2023-06-14T11:39:27;7.38;;;0.57;;
27039;SDS011;14589;51.578;7.306;2023-06-14T11:41:57;3.03;;;0.35;;
27039;SDS011;14589;51.578;7.306;2023-06-14T11:44:31;5.95;;;0.40;;
27039;SDS011;14589;51.578;7.306;2023-06-14T11:47:03;1.50;;;0.98;;
27039;SDS011;14589;51.578;7.306;2023-06-14T11:49:36;4.07;;;0.15;;
27039;SDS011;14589;51.578;7.306;2023-06-14T11:52:07;3.08;;;0.45;;
27039;SDS011;14589;51.578;7.306;2023-06-14T11:54:38;3.58;;;0.57;;
27039;SDS011;14589;51.578;7.306;2023-06-14T11:57:10;3.65;;;0.75;;
27039;SDS011;14589;51.578;7.306;2023-06-14T11:59:41;2.58;;;0.63;;
27039;SDS011;14589;51.578;7.306;2023-06-14T12:02:17;1.35;;;0.63;;
27039;SDS011;14589;51.578;7.306;2023-06-14T12:04:55;1.98;;;0.63;;
27039;SDS011;14589;51.578;7.306;2023-06-14T12:07:25;5.25;;;0.70;;
27039;SDS011;14589;51.578;7.306;2023-06-14T12:12:30;3.03;;;0.75;;
27039;SDS011;14589;51.578;7.306;2023-06-14T12:15:02;2.13;;;0.20;;
27039;SDS011;14589;51.578;7.306;2023-06-14T12:17:33;1.65;;;0.82;;
27039;SDS011;14589;51.578;7.306;2023-06-14T12:20:08;2.63;;;0.60;;
27039;SDS011;14589;51.578;7.306;2023-06-14T12:22:47;1.10;;;0.80;;
27039;SDS011;14589;51.578;7.306;2023-06-14T12:25:26;1.25;;;0.25;;
27039;SDS011;14589;51.578;7.306;2023-06-14T12:27:57;1.52;;;0.30;;
27039;SDS011;14589;51.578;7.306;2023-06-14T12:30:28;1.20;;;0.40;;
27039;SDS011;14589;51.578;7.306;2023-06-14T12:32:59;2.42;;;1.25;;
27039;SDS011;14589;51.578;7.306;2023-06-14T12:35:30;1.77;;;0.40;;
27039;SDS011;14589;51.578;7.306;2023-06-14T12:38:01;1.50;;;0.95;;
27039;SDS011;14589;51.578;7.306;2023-06-14T12:40:33;1.63;;;0.30;;
27039;SDS011;14589;51.578;7.306;2023-06-14T12:43:03;1.08;;;0.28;;
27039;SDS011;14589;51.578;7.306;2023-06-14T12:45:34;6.78;;;0.60;;
27039;SDS011;14589;51.578;7.306;2023-06-14T12:48:04;1.88;;;0.57;;
27039;SDS011;14589;51.578;7.306;2023-06-14T12:50:35;4.47;;;0.52;;
27039;SDS011;14589;51.578;7.306;2023-06-14T12:53:05;0.75;;;0.30;;
27039;SDS011;14589;51.578;7.306;2023-06-14T12:55:36;4.28;;;1.35;;
27039;SDS011;14589;51.578;7.306;2023-06-14T12:58:06;1.08;;;0.40;;
27039;SDS011;14589;51.578;7.306;2023-06-14T13:00:37;4.00;;;1.17;;
27039;SDS011;14589;51.578;7.306;2023-06-14T13:03:07;1.52;;;1.02;;
27039;SDS011;14589;51.578;7.306;2023-06-14T13:05:38;2.40;;;0.35;;
27039;SDS011;14589;51.578;7.306;2023-06-14T13:08:11;1.75;;;0.30;;
27039;SDS011;14589;51.578;7.306;2023-06-14T13:10:41;2.90;;;0.60;;
27039;SDS011;14589;51.578;7.306;2023-06-14T13:13:12;2.85;;;0.50;;
27039;SDS011;14589;51.578;7.306;2023-06-14T13:15:43;2.25;;;1.45;;
27039;SDS011;14589;51.578;7.306;2023-06-14T13:18:16;3.35;;;0.80;;
27039;SDS011;14589;51.578;7.306;2023-06-14T13:20:50;4.07;;;0.35;;
27039;SDS011;14589;51.578;7.306;2023-06-14T13:23:20;2.10;;;0.65;;
27039;SDS011;14589;51.578;7.306;2023-06-14T13:25:51;2.03;;;0.40;;
27039;SDS011;14589;51.578;7.306;2023-06-14T13:28:21;3.08;;;0.60;;
27039;SDS011;14589;51.578;7.306;2023-06-14T13:30:52;1.70;;;0.90;;
27039;SDS011;14589;51.578;7.306;2023-06-14T13:33:22;0.98;;;0.55;;
27039;SDS011;14589;51.578;7.306;2023-06-14T13:35:57;1.25;;;0.60;;
27039;SDS011;14589;51.578;7.306;2023-06-14T13:38:28;1.88;;;1.00;;
27039;SDS011;14589;51.578;7.306;2023-06-14T13:40:58;1.38;;;0.52;;
27039;SDS011;14589;51.578;7.306;2023-06-14T13:43:28;3.58;;;0.40;;
27039;SDS011;14589;51.578;7.306;2023-06-14T13:45:59;1.48;;;0.45;;
27039;SDS011;14589;51.578;7.306;2023-06-14T13:48:30;1.67;;;0.45;;
27039;SDS011;14589;51.578;7.306;2023-06-14T13:51:00;3.00;;;0.68;;
27039;SDS011;14589;51.578;7.306;2023-06-14T13:53:31;3.28;;;0.70;;
27039;SDS011;14589;51.578;7.306;2023-06-14T13:56:01;2.67;;;0.60;;
27039;SDS011;14589;51.578;7.306;2023-06-14T13:58:32;2.78;;;1.02;;
27039;SDS011;14589;51.578;7.306;2023-06-14T14:01:03;3.95;;;0.80;;
27039;SDS011;14589;51.578;7.306;2023-06-14T14:03:33;6.32;;;0.60;;
27039;SDS011;14589;51.578;7.306;2023-06-14T14:06:04;3.35;;;0.43;;
27039;SDS011;14589;51.578;7.306;2023-06-14T14:08:35;1.85;;;0.60;;
27039;SDS011;14589;51.578;7.306;2023-06-14T14:11:06;2.83;;;0.50;;
27039;SDS011;14589;51.578;7.306;2023-06-14T14:13:38;1.50;;;0.38;;
27039;SDS011;14589;51.578;7.306;2023-06-14T14:18:40;3.60;;;0.40;;
27039;SDS011;14589;51.578;7.306;2023-06-14T14:21:11;1.58;;;0.60;;
27039;SDS011;14589;51.578;7.306;2023-06-14T14:23:41;2.65;;;0.60;;
27039;SDS011;14589;51.578;7.306;2023-06-14T14:26:12;3.67;;;0.63;;
27039;SDS011;14589;51.578;7.306;2023-06-14T14:28:42;2.08;;;0.30;;
27039;SDS011;14589;51.578;7.306;2023-06-14T14:31:13;6.15;;;0.65;;
27039;SDS011;14589;51.578;7.306;2023-06-14T14:33:43;2.05;;;0.75;;
27039;SDS011;14589;51.578;7.306;2023-06-14T14:36:13;1.23;;;0.70;;
27039;SDS011;14589;51.578;7.306;2023-06-14T14:38:44;3.00;;;1.02;;
27039;SDS011;14589;51.578;7.306;2023-06-14T14:41:15;2.85;;;0.90;;
27039;SDS011;14589;51.578;7.306;2023-06-14T14:43:45;2.53;;;1.20;;
27039;SDS011;14589;51.578;7.306;2023-06-14T14:46:15;1.67;;;1.17;;
27039;SDS011;14589;51.578;7.306;2023-06-14T14:48:46;2.00;;;0.50;;
27039;SDS011;14589;51.578;7.306;2023-06-14T14:51:17;2.03;;;0.90;;
27039;SDS011;14589;51.578;7.306;2023-06-14T14:53:47;3.72;;;1.27;;
27039;SDS011;14589;51.578;7.306;2023-06-14T14:56:18;2.35;;;0.95;;
27039;SDS011;14589;51.578;7.306;2023-06-14T14:58:48;2.65;;;1.40;;
27039;SDS011;14589;51.578;7.306;2023-06-14T15:01:19;2.70;;;0.95;;
27039;SDS011;14589;51.578;7.306;2023-06-14T15:03:50;2.90;;;1.73;;
27039;SDS011;14589;51.578;7.306;2023-06-14T15:06:20;2.20;;;0.98;;
27039;SDS011;14589;51.578;7.306;2023-06-14T15:08:50;2.05;;;0.45;;
27039;SDS011;14589;51.578;7.306;2023-06-14T15:11:22;3.47;;;0.50;;
27039;SDS011;14589;51.578;7.306;2023-06-14T15:13:52;2.97;;;1.10;;
27039;SDS011;14589;51.578;7.306;2023-06-14T15:16:23;1.58;;;0.63;;
27039;SDS011;14589;51.578;7.306;2023-06-14T15:18:54;4.97;;;0.73;;
27039;SDS011;14589;51.578;7.306;2023-06-14T15:21:24;2.83;;;1.00;;
27039;SDS011;14589;51.578;7.306;2023-06-14T15:23:55;1.45;;;0.50;;
27039;SDS011;14589;51.578;7.306;2023-06-14T15:26:25;2.55;;;0.52;;
27039;SDS011;14589;51.578;7.306;2023-06-14T15:28:56;2.00;;;0.40;;
27039;SDS011;14589;51.578;7.306;2023-06-14T15:31:26;1.52;;;0.50;;
27039;SDS011;14589;51.578;7.306;2023-06-14T15:33:59;5.70;;;0.68;;
27039;SDS011;14589;51.578;7.306;2023-06-14T15:36:29;3.75;;;0.45;;
27039;SDS011;14589;51.578;7.306;2023-06-14T15:39:00;3.30;;;0.43;;
27039;SDS011;14589;51.578;7.306;2023-06-14T15:41:32;1.92;;;0.98;;
27039;SDS011;14589;51.578;7.306;2023-06-14T15:44:03;1.10;;;0.63;;
27039;SDS011;14589;51.578;7.306;2023-06-14T15:46:33;1.73;;;0.55;;